Kelley, IA (50134)

9:07 AM CST on January 19, 2017 (GMT -0600)
North Central Regional Plant Introduction Station | | Change Station
Active Advisory: Dense Fog Advisory

Elev 994 ft 42.01 °N, 93.66 °W | Updated 7 minutes ago

Fog
Fog
30.9 °F
Feels Like 31 °F
N
3.0
Wind Variable Wind from ESE

Today
High -- | Low -- °F
--% Chance of Precip.
Yesterday
High -- | Low -- °F
Precip. -- in
Pressure 29.88 in
Visibility 0.5 miles
Clouds
Windchill 31 °F
Dew Point 30 °F
Humidity 97%
Rainfall 0.00 in
Snow Depth Not available.
7:37 AM 5:13 PM
Waning Gibbous, 53% visible
METAR KAMW 191453Z AUTO 11005KT 1/2SM FZFG VV002 M01/M01 A2986 RMK AO2 SLP117 I3001 T10061006 55002
Pressure 29.88 in
Visibility 0.5 miles
Clouds
Windchill 31 °F
Dew Point 30 °F
Humidity 97%
Rainfall 0.00 in
Snow Depth Not available.
7:37 AM 5:13 PM
Waning Gibbous, 53% visible
METAR KAMW 191453Z AUTO 11005KT 1/2SM FZFG VV002 M01/M01 A2986 RMK AO2 SLP117 I3001 T10061006 55002

Get Your Daily Forecast Email!

Thanks for signing up!

Be on the lookout for a verification email in your inbox.

You'll start receiving the daily forecast at 8 AM.

×

10-Day Weather Forecast

Almanac

Astronomy

Jan. 19, 2017 Rise Set
Actual Time
Civil Twilight
Nautical Twilight
Astronomical Twilight
Moon
Length of Visible Light
Length of Day
Tomorrow will be .
, % of the Moon is Illuminated

Today's Extremes

State Highs State Lows

Community

WunderPhotos

Upload Photos

1,962,540 photos uploaded!

WunderBlog® & News

Nearby

Air Quality

  Air Quality AQ Index Pollutant
Not available.

Snow Depth

Station Depth Elevation

Earthquake Activity

City Distance Mag. Time & Date
Minimum magnitude displayed is 2.5.

Coastal Water Temperatures

Place Temperature

Stations

Nearby Weather Stations

Station Location Temp. Windchill Dew Point Humidity Wind Precip. Elev Updated Type
                   

Watches & Warnings

Dense Fog Advisory
Issued: 8:38 AM CST Jan. 19, 2017 – National Weather Service

... Dense fog advisory now in effect until noon CST today...

* visibility... around a quarter mile or less... to near zero at
times.

* Impacts... driving will be hazardous due to low and changing
visibilities. Allow extra travel time and please take
appropriate precautions while driving.

Precautionary/preparedness actions...

A dense fog advisory means visibilities will frequently be
reduced to less than one quarter mile. Be especially cautious near
intersections and Railroad crossings as vehicles and trains may be
hidden from view by the dense fog. Also be especially careful if
traveling along known school bus routes as busses make frequent
stops. If driving, slow down, use your headlights, and leave
plenty of distance ahead of you.



Rev